createdAt,value
2022-11-21T00:00:58.236Z,3.59
2022-11-21T00:03:25.205Z,3.55
2022-11-21T00:05:52.709Z,3.56
2022-11-21T00:08:21.235Z,3.54
2022-11-21T00:10:48.541Z,3.50
2022-11-21T00:13:18.472Z,3.49
2022-11-21T00:15:46.340Z,3.45
2022-11-21T00:18:13.585Z,3.46
2022-11-21T00:20:43.890Z,3.42
2022-11-21T00:23:11.786Z,3.44
2022-11-21T00:25:39.548Z,3.43
2022-11-21T00:28:06.586Z,3.41
2022-11-21T00:30:33.708Z,3.42
2022-11-21T00:33:00.445Z,3.38
2022-11-21T00:35:27.590Z,3.39
2022-11-21T00:37:54.600Z,3.35
2022-11-21T00:40:22.022Z,3.37
2022-11-21T00:42:49.151Z,3.42
2022-11-21T00:45:21.191Z,3.42
2022-11-21T00:47:50.582Z,3.40
2022-11-21T00:50:17.344Z,3.38
2022-11-21T00:52:43.968Z,3.35
2022-11-21T00:55:10.612Z,3.25
2022-11-21T00:57:37.226Z,3.25
2022-11-21T01:00:05.792Z,3.22
2022-11-21T01:02:33.018Z,3.24
2022-11-21T01:04:59.710Z,3.27
2022-11-21T01:07:26.937Z,3.29
2022-11-21T01:09:53.704Z,3.30
2022-11-21T01:12:20.413Z,3.32
2022-11-21T01:14:47.614Z,3.32
2022-11-21T01:17:14.514Z,3.31
2022-11-21T01:19:41.154Z,3.31
2022-11-21T01:22:07.824Z,3.31
2022-11-21T01:24:34.497Z,3.29
2022-11-21T01:27:01.148Z,3.26
2022-11-21T01:29:28.276Z,3.22
2022-11-21T01:31:54.930Z,3.23
2022-11-21T01:34:21.571Z,3.22
2022-11-21T01:36:48.275Z,3.20
2022-11-21T01:39:16.141Z,3.20
2022-11-21T01:41:45.754Z,3.20
2022-11-21T01:44:21.997Z,3.21
2022-11-21T01:46:50.665Z,3.19
2022-11-21T01:49:26.077Z,3.22
2022-11-21T01:52:04.694Z,3.21
2022-11-21T01:54:40.747Z,3.19
2022-11-21T01:57:19.306Z,3.19
2022-11-21T01:59:52.467Z,3.21
2022-11-21T02:02:22.904Z,3.23
2022-11-21T02:04:52.098Z,3.19
2022-11-21T02:07:21.819Z,3.18
2022-11-21T02:09:54.201Z,3.23
2022-11-21T02:12:56.235Z,3.18
2022-11-21T02:15:25.858Z,3.21
2022-11-21T02:17:53.081Z,3.20
2022-11-21T02:20:22.829Z,3.21
2022-11-21T02:22:53.144Z,3.22
2022-11-21T02:25:28.252Z,3.21
2022-11-21T02:28:05.396Z,3.21
2022-11-21T02:30:35.489Z,3.16
2022-11-21T02:33:02.476Z,3.11
2022-11-21T02:35:29.344Z,3.09
2022-11-21T02:38:14.436Z,3.06
2022-11-21T02:40:46.025Z,2.98
2022-11-21T02:43:28.474Z,2.91
2022-11-21T02:45:55.213Z,2.86
2022-11-21T02:48:22.392Z,2.83
2022-11-21T02:50:49.284Z,2.76
2022-11-21T02:53:18.829Z,2.71
2022-11-21T02:55:45.784Z,2.71
2022-11-21T02:58:12.863Z,2.70
2022-11-21T03:00:41.770Z,2.67
2022-11-21T03:03:09.403Z,2.66
2022-11-21T03:05:37.197Z,2.58
2022-11-21T03:08:05.238Z,2.47
2022-11-21T03:10:32.897Z,2.36
2022-11-21T03:13:02.844Z,2.36
2022-11-21T03:15:33.145Z,2.29
2022-11-21T03:18:02.717Z,2.25
2022-11-21T03:20:34.516Z,2.22
2022-11-21T03:23:01.578Z,2.12
2022-11-21T03:25:28.353Z,2.14
2022-11-21T03:27:55.354Z,2.24
2022-11-21T03:30:24.079Z,2.30
2022-11-21T03:32:50.964Z,2.35
2022-11-21T03:35:17.721Z,2.32
2022-11-21T03:37:44.444Z,2.28
2022-11-21T03:40:11.932Z,2.29
2022-11-21T03:42:38.632Z,2.27
2022-11-21T03:45:05.933Z,2.32
2022-11-21T03:47:32.813Z,2.27
2022-11-21T03:49:59.452Z,2.33
2022-11-21T03:52:26.100Z,2.37
2022-11-21T03:54:52.810Z,2.44
2022-11-21T03:57:19.492Z,2.42
2022-11-21T03:59:46.194Z,2.43
2022-11-21T04:02:12.949Z,2.42
2022-11-21T04:04:39.614Z,2.40
2022-11-21T04:07:06.288Z,2.44
2022-11-21T04:09:32.976Z,2.39
2022-11-21T04:12:01.691Z,2.36
2022-11-21T04:14:31.725Z,2.34
2022-11-21T04:16:58.354Z,2.32
2022-11-21T04:19:25.057Z,2.38
2022-11-21T04:21:51.717Z,2.32
2022-11-21T04:24:18.391Z,2.27
2022-11-21T04:26:44.980Z,2.27
2022-11-21T04:29:11.611Z,2.31
2022-11-21T04:31:38.253Z,2.35
2022-11-21T04:34:04.927Z,2.33
2022-11-21T04:36:31.855Z,2.31
2022-11-21T04:38:58.505Z,2.35
2022-11-21T04:41:25.155Z,2.34
2022-11-21T04:43:51.761Z,2.33
2022-11-21T04:46:18.422Z,2.36
2022-11-21T04:48:45.052Z,2.38
2022-11-21T04:51:11.759Z,2.41
2022-11-21T04:53:42.755Z,2.39
2022-11-21T04:56:10.552Z,2.41
2022-11-21T04:58:37.281Z,2.48
2022-11-21T05:01:08.851Z,2.53
2022-11-21T05:03:36.295Z,2.57
2022-11-21T05:06:03.374Z,2.60
2022-11-21T05:08:30.025Z,2.62
2022-11-21T05:11:15.347Z,2.65
2022-11-21T05:13:41.982Z,2.71
2022-11-21T05:16:08.702Z,2.77
2022-11-21T05:18:35.360Z,2.81
2022-11-21T05:21:03.098Z,2.87
2022-11-21T05:23:29.885Z,2.91
2022-11-21T05:25:56.711Z,2.95
2022-11-21T05:28:23.394Z,2.98
2022-11-21T05:30:50.052Z,2.99
2022-11-21T05:33:17.127Z,3.00
2022-11-21T05:35:44.029Z,3.02
2022-11-21T05:38:11.163Z,3.04
2022-11-21T05:40:37.958Z,3.08
2022-11-21T05:43:23.228Z,3.14
2022-11-21T05:45:50.742Z,3.16
2022-11-21T05:48:18.259Z,3.16
2022-11-21T05:50:48.857Z,3.15
2022-11-21T05:53:16.526Z,3.14
2022-11-21T05:55:43.432Z,3.14
2022-11-21T05:58:10.982Z,3.14
2022-11-21T06:00:38.400Z,3.15
2022-11-21T06:03:25.187Z,3.16
2022-11-21T06:05:52.004Z,3.16
2022-11-21T06:08:18.904Z,3.17
2022-11-21T06:10:45.639Z,3.17
2022-11-21T06:13:24.338Z,3.21
2022-11-21T06:15:58.957Z,3.20
2022-11-21T06:18:26.673Z,3.18
2022-11-21T06:20:53.707Z,3.16
2022-11-21T06:23:20.412Z,3.13
2022-11-21T06:25:47.059Z,3.09
2022-11-21T06:28:13.677Z,3.14
2022-11-21T06:30:40.384Z,3.18
2022-11-21T06:33:07.466Z,3.16
2022-11-21T06:35:38.043Z,3.17
2022-11-21T06:38:04.867Z,3.15
2022-11-21T06:40:31.524Z,3.19
2022-11-21T06:42:58.201Z,3.18
2022-11-21T06:45:24.869Z,3.21
2022-11-21T06:47:51.522Z,3.17
2022-11-21T06:50:18.338Z,3.20
2022-11-21T06:52:44.958Z,3.22
2022-11-21T06:55:11.966Z,3.20
2022-11-21T06:57:38.565Z,3.16
2022-11-21T07:00:06.657Z,3.16
2022-11-21T07:02:33.347Z,3.17
2022-11-21T07:04:59.981Z,3.13
2022-11-21T07:07:26.634Z,3.12
2022-11-21T07:09:53.325Z,3.14
2022-11-21T07:12:46.090Z,3.14
2022-11-21T07:15:12.677Z,3.12
2022-11-21T07:17:39.335Z,3.09
2022-11-21T07:20:06.631Z,3.09
2022-11-21T07:22:33.253Z,3.04
2022-11-21T07:24:59.890Z,3.01
2022-11-21T07:27:26.549Z,3.06
2022-11-21T07:29:53.232Z,3.05
2022-11-21T07:32:19.927Z,3.11
2022-11-21T07:34:46.598Z,3.14
2022-11-21T07:37:13.213Z,3.21
2022-11-21T07:39:39.937Z,3.25
2022-11-21T07:42:06.589Z,3.27
2022-11-21T07:44:36.277Z,3.26
2022-11-21T07:47:02.907Z,3.31
2022-11-21T07:49:29.761Z,3.36
2022-11-21T07:51:56.632Z,3.40
2022-11-21T07:54:23.280Z,3.49
2022-11-21T07:56:49.938Z,3.61
2022-11-21T07:59:19.233Z,3.64
2022-11-21T08:01:46.010Z,3.88
2022-11-21T08:04:12.751Z,4.04
2022-11-21T08:06:39.388Z,4.13
2022-11-21T08:09:05.997Z,3.91
2022-11-21T08:11:32.717Z,3.76
2022-11-21T08:13:59.698Z,3.74
2022-11-21T08:16:28.191Z,3.78
2022-11-21T08:18:54.933Z,3.82
2022-11-21T08:21:21.625Z,3.81
2022-11-21T08:23:48.806Z,3.88
2022-11-21T08:26:15.483Z,3.86
2022-11-21T08:28:42.154Z,3.88
2022-11-21T08:31:08.847Z,3.87
2022-11-21T08:33:35.664Z,3.85
2022-11-21T08:36:06.202Z,3.92
2022-11-21T08:38:33.570Z,3.97
2022-11-21T08:41:18.895Z,4.09
2022-11-21T08:43:45.742Z,4.22
2022-11-21T08:46:12.464Z,4.23
2022-11-21T08:48:39.103Z,4.19
2022-11-21T08:51:05.751Z,4.13
2022-11-21T08:53:32.361Z,4.08
2022-11-21T08:56:03.799Z,4.10
2022-11-21T08:58:31.145Z,4.14
2022-11-21T09:00:59.276Z,4.19
2022-11-21T09:03:30.856Z,4.31
2022-11-21T09:05:58.704Z,4.49
2022-11-21T09:08:25.706Z,4.55
2022-11-21T09:10:52.403Z,4.55
2022-11-21T09:13:19.121Z,4.50
2022-11-21T09:16:04.443Z,4.51
2022-11-21T09:18:31.071Z,4.51
2022-11-21T09:20:58.999Z,4.47
2022-11-21T09:23:25.829Z,4.48
2022-11-21T09:25:52.538Z,4.53
2022-11-21T09:28:19.194Z,4.56
2022-11-21T09:30:46.311Z,4.55
2022-11-21T09:33:15.214Z,4.57
2022-11-21T09:35:41.896Z,4.60
2022-11-21T09:38:08.972Z,4.65
2022-11-21T09:40:36.149Z,4.70
2022-11-21T09:43:27.877Z,4.82
2022-11-21T09:46:08.041Z,5.15
2022-11-21T09:48:58.860Z,5.50
2022-11-21T09:51:29.778Z,5.36
2022-11-21T09:53:59.323Z,5.19
2022-11-21T09:56:29.134Z,4.99
2022-11-21T09:58:55.699Z,5.58
2022-11-21T10:01:22.427Z,6.41
2022-11-21T10:03:52.306Z,7.15
2022-11-21T10:06:22.035Z,7.25
2022-11-21T10:09:19.391Z,7.76
2022-11-21T10:12:22.301Z,8.22
2022-11-21T10:15:01.912Z,7.91
2022-11-21T10:18:06.263Z,7.27
2022-11-21T10:20:41.951Z,6.71
2022-11-21T10:23:32.194Z,6.50
2022-11-21T10:26:20.665Z,6.50
2022-11-21T10:28:56.402Z,6.42
2022-11-21T10:31:23.120Z,6.21
2022-11-21T10:33:52.427Z,6.14
2022-11-21T10:36:37.517Z,6.11
2022-11-21T10:39:35.934Z,6.16
2022-11-21T10:42:35.224Z,6.58
2022-11-21T10:45:19.893Z,6.67
2022-11-21T10:47:50.176Z,6.57
2022-11-21T10:50:32.010Z,6.52
2022-11-21T10:53:24.242Z,6.51
2022-11-21T10:56:10.558Z,6.49
2022-11-21T10:58:44.054Z,6.46
2022-11-21T11:01:19.932Z,6.47
2022-11-21T11:04:06.903Z,6.47
2022-11-21T11:06:33.599Z,6.62
2022-11-21T11:09:00.233Z,6.50
2022-11-21T11:11:26.962Z,6.33
2022-11-21T11:14:04.007Z,6.19
2022-11-21T11:16:40.155Z,6.06
2022-11-21T11:19:35.403Z,5.95
2022-11-21T11:22:27.438Z,6.50
2022-11-21T11:24:57.608Z,6.67
2022-11-21T11:27:29.158Z,7.01
2022-11-21T11:29:56.186Z,7.20
2022-11-21T11:32:23.647Z,6.98
2022-11-21T11:35:00.423Z,7.39
2022-11-21T11:37:41.872Z,7.98
2022-11-21T11:40:18.839Z,7.55
2022-11-21T11:43:41.477Z,6.94
2022-11-21T11:46:53.609Z,6.66
2022-11-21T11:49:52.907Z,6.49
2022-11-21T11:52:24.508Z,6.32
2022-11-21T11:55:01.270Z,6.44
2022-11-21T11:57:31.541Z,6.87
2022-11-21T12:00:19.414Z,6.90
2022-11-21T12:03:00.703Z,6.70
2022-11-21T12:05:30.270Z,6.72
2022-11-21T12:08:40.888Z,6.76
2022-11-21T12:11:52.136Z,6.60
2022-11-21T12:14:57.622Z,6.54
2022-11-21T12:17:31.124Z,7.15
2022-11-21T12:19:59.517Z,7.97
2022-11-21T12:22:26.182Z,8.69
2022-11-21T12:24:53.409Z,8.95
2022-11-21T12:27:32.873Z,8.96
2022-11-21T12:30:14.981Z,8.94
2022-11-21T12:33:06.628Z,8.69
2022-11-21T12:36:16.613Z,8.43
2022-11-21T12:39:09.162Z,7.89
2022-11-21T12:42:15.748Z,7.65
2022-11-21T12:44:54.520Z,7.62
2022-11-21T12:47:56.352Z,7.47
2022-11-21T12:51:06.301Z,7.14
2022-11-21T12:54:04.645Z,6.79
2022-11-21T12:57:00.518Z,6.56
2022-11-21T12:59:29.780Z,6.46
2022-11-21T13:02:27.777Z,6.39
2022-11-21T13:04:57.361Z,6.38
2022-11-21T13:07:29.495Z,6.33
2022-11-21T13:09:58.760Z,6.29
2022-11-21T13:12:40.267Z,6.37
2022-11-21T13:15:10.169Z,6.52
2022-11-21T13:17:52.426Z,6.63
2022-11-21T13:20:31.762Z,6.74
2022-11-21T13:23:06.448Z,7.03
2022-11-21T13:25:33.154Z,7.45
2022-11-21T13:28:18.308Z,7.74
2022-11-21T13:30:55.892Z,8.07
2022-11-21T13:33:34.744Z,8.50
2022-11-21T13:36:11.093Z,8.88
2022-11-21T13:38:53.142Z,9.04
2022-11-21T13:41:53.903Z,9.10
2022-11-21T13:44:35.765Z,9.00
2022-11-21T13:47:12.332Z,8.97
2022-11-21T13:50:10.205Z,8.91
2022-11-21T13:52:49.605Z,8.66
2022-11-21T13:55:38.497Z,8.45
2022-11-21T13:58:19.365Z,8.62
2022-11-21T14:01:04.360Z,8.80
2022-11-21T14:03:30.995Z,8.79
2022-11-21T14:06:16.268Z,8.91
2022-11-21T14:08:43.944Z,9.00
2022-11-21T14:11:22.383Z,9.04
2022-11-21T14:13:50.119Z,8.83
2022-11-21T14:16:23.266Z,8.72
2022-11-21T14:18:50.818Z,8.48
2022-11-21T14:21:27.986Z,8.08
2022-11-21T14:23:58.543Z,7.93
2022-11-21T14:26:25.701Z,7.92
2022-11-21T14:28:52.598Z,7.62
2022-11-21T14:31:19.367Z,7.43
2022-11-21T14:33:47.688Z,7.26
2022-11-21T14:36:22.098Z,7.05
2022-11-21T14:39:13.764Z,6.84
2022-11-21T14:41:39.771Z,6.54
2022-11-21T14:44:16.209Z,6.40
2022-11-21T14:46:44.059Z,6.33
2022-11-21T14:49:16.693Z,6.30
2022-11-21T14:51:45.518Z,6.25
2022-11-21T14:54:16.809Z,6.19
2022-11-21T14:56:47.077Z,6.11
2022-11-21T14:59:43.138Z,6.06
2022-11-21T15:02:22.948Z,6.01
2022-11-21T15:04:51.169Z,5.98
2022-11-21T15:07:26.958Z,5.98
2022-11-21T15:13:10.014Z,5.83
2022-11-21T15:15:42.027Z,5.76
2022-11-21T15:18:27.531Z,5.65
2022-11-21T15:21:01.622Z,5.56
2022-11-21T15:23:34.084Z,5.44
2022-11-21T15:26:01.831Z,5.36
2022-11-21T15:28:29.485Z,5.29
2022-11-21T15:31:16.752Z,5.22
2022-11-21T15:37:12.290Z,5.06
2022-11-21T15:39:48.004Z,4.94
2022-11-21T15:42:33.369Z,4.93
2022-11-21T15:45:26.147Z,4.83
2022-11-21T15:47:53.041Z,4.79
2022-11-21T15:50:23.273Z,4.80
2022-11-21T15:52:51.625Z,4.77
2022-11-21T15:55:25.389Z,4.67
2022-11-21T15:57:13.219Z,5.16
2022-11-21T15:57:52.014Z,4.52
2022-11-21T16:00:18.829Z,4.36
2022-11-21T16:02:45.571Z,4.34
2022-11-21T16:05:14.193Z,4.30
2022-11-21T16:07:41.844Z,4.26
2022-11-21T16:10:17.196Z,4.21
2022-11-21T16:12:48.381Z,4.06
2022-11-21T16:15:15.243Z,4.00
2022-11-21T16:17:41.935Z,3.98
2022-11-21T16:20:09.067Z,3.95
2022-11-21T16:22:35.684Z,3.94
2022-11-21T16:25:02.342Z,3.90
2022-11-21T16:27:29.502Z,3.90
2022-11-21T16:29:56.148Z,3.87
2022-11-21T16:32:25.665Z,3.83
2022-11-21T16:34:52.511Z,3.73
2022-11-21T16:37:19.209Z,3.67
2022-11-21T16:39:51.823Z,3.64
2022-11-21T16:42:19.479Z,3.63
2022-11-21T16:44:46.103Z,3.56
2022-11-21T16:47:14.009Z,3.42
2022-11-21T16:49:44.989Z,3.31
2022-11-21T16:52:11.734Z,3.29
2022-11-21T16:54:38.438Z,3.25
2022-11-21T16:57:05.338Z,3.20
2022-11-21T16:59:32.653Z,3.13
2022-11-21T17:01:59.672Z,3.04
2022-11-21T17:04:26.283Z,2.99
2022-11-21T17:06:53.338Z,3.00
2022-11-21T17:09:20.028Z,3.02
2022-11-21T17:11:46.873Z,2.96
2022-11-21T17:14:13.801Z,2.91
2022-11-21T17:16:41.719Z,2.86
2022-11-21T17:19:11.575Z,2.84
2022-11-21T17:21:38.313Z,2.83
2022-11-21T17:24:05.135Z,2.85
2022-11-21T17:26:31.814Z,2.83
2022-11-21T17:29:03.660Z,2.77
2022-11-21T17:31:30.972Z,2.70
2022-11-21T17:33:59.041Z,2.67
2022-11-21T17:36:27.677Z,2.66
2022-11-21T17:38:54.563Z,2.61
2022-11-21T17:41:23.516Z,2.54
2022-11-21T17:43:54.040Z,2.49
2022-11-21T17:46:20.850Z,2.52
2022-11-21T17:48:54.974Z,2.58
2022-11-21T17:51:29.111Z,2.60
2022-11-21T17:53:56.162Z,2.57
2022-11-21T17:56:25.153Z,2.60
2022-11-21T17:58:52.485Z,2.62
2022-11-21T18:01:19.841Z,2.63
2022-11-21T18:03:47.689Z,2.62
2022-11-21T18:06:16.644Z,2.66
2022-11-21T18:08:46.066Z,2.64
2022-11-21T18:11:18.312Z,2.67
2022-11-21T18:13:45.834Z,2.67
2022-11-21T18:16:15.466Z,2.67
2022-11-21T18:18:42.446Z,2.72
2022-11-21T18:21:14.756Z,2.75
2022-11-21T18:23:42.060Z,2.71
2022-11-21T18:26:13.054Z,2.71
2022-11-21T18:28:40.257Z,2.67
2022-11-21T18:31:12.426Z,2.64
2022-11-21T18:33:39.830Z,2.61
2022-11-21T18:36:07.924Z,2.51
2022-11-21T18:38:48.757Z,2.41
2022-11-21T18:41:19.413Z,2.43
2022-11-21T18:43:54.613Z,2.56
2022-11-21T18:46:22.982Z,2.65
2022-11-21T18:49:04.669Z,2.61
2022-11-21T18:51:32.939Z,2.57
2022-11-21T18:54:04.301Z,2.48
2022-11-21T18:56:31.192Z,2.34
2022-11-21T18:58:59.024Z,2.30
2022-11-21T19:01:28.725Z,2.24
2022-11-21T19:03:56.326Z,2.22
2022-11-21T19:06:24.606Z,2.15
2022-11-21T19:08:53.421Z,2.17
2022-11-21T19:11:21.923Z,2.18
2022-11-21T19:13:48.957Z,2.20
2022-11-21T19:16:18.412Z,2.22
2022-11-21T19:18:55.320Z,2.22
2022-11-21T19:21:35.819Z,2.20
2022-11-21T19:24:02.560Z,2.23
2022-11-21T19:26:31.163Z,2.33
2022-11-21T19:28:58.817Z,2.26
2022-11-21T19:31:25.629Z,2.22
2022-11-21T19:33:52.280Z,2.18
2022-11-21T19:36:21.073Z,2.21
2022-11-21T19:38:50.868Z,2.18
2022-11-21T19:41:22.110Z,2.14
2022-11-21T19:43:54.110Z,2.16
2022-11-21T19:46:23.140Z,2.15
2022-11-21T19:48:51.529Z,2.14
2022-11-21T19:51:20.147Z,2.15
2022-11-21T19:53:46.874Z,2.12
2022-11-21T19:56:18.727Z,2.18
2022-11-21T19:58:46.361Z,2.19
2022-11-21T20:01:15.808Z,2.17
2022-11-21T20:03:46.347Z,2.23
2022-11-21T20:06:25.105Z,2.23
2022-11-21T20:08:56.756Z,2.26
2022-11-21T20:11:24.487Z,2.35
2022-11-21T20:13:51.548Z,2.34
2022-11-21T20:16:22.781Z,2.33
2022-11-21T20:18:50.628Z,2.37
2022-11-21T20:21:18.363Z,2.34
2022-11-21T20:23:46.322Z,2.21
2022-11-21T20:26:14.036Z,2.12
2022-11-21T20:28:40.860Z,2.14
2022-11-21T20:31:12.351Z,2.15
2022-11-21T20:33:42.334Z,2.08
2022-11-21T20:36:16.210Z,2.05
2022-11-21T20:38:43.863Z,2.13
2022-11-21T20:41:10.479Z,2.16
2022-11-21T20:44:14.279Z,2.23
2022-11-21T20:46:23.924Z,2.34
2022-11-21T20:48:50.657Z,2.42
2022-11-21T20:54:04.635Z,2.51
2022-11-21T20:56:36.138Z,2.53
2022-11-21T20:59:03.948Z,2.55
2022-11-21T21:01:31.960Z,2.60
2022-11-21T21:03:58.620Z,2.64
2022-11-21T21:06:25.834Z,2.58
2022-11-21T21:08:52.798Z,2.61
2022-11-21T21:11:49.660Z,2.64
2022-11-21T21:14:08.026Z,2.61
2022-11-21T21:16:34.643Z,2.55
2022-11-21T21:19:01.315Z,2.54
2022-11-21T21:21:30.863Z,2.55
2022-11-21T21:24:08.579Z,2.59
2022-11-21T21:26:42.498Z,2.65
2022-11-21T21:29:11.927Z,2.71
2022-11-21T21:31:40.235Z,2.76
2022-11-21T21:34:10.146Z,2.80
2022-11-21T21:36:36.868Z,2.81
2022-11-21T21:39:04.061Z,2.86
2022-11-21T21:41:31.708Z,2.86
2022-11-21T21:43:58.541Z,2.85
2022-11-21T21:46:27.157Z,2.84
2022-11-21T21:48:56.200Z,2.80
2022-11-21T21:51:31.357Z,2.80
2022-11-21T21:53:59.078Z,2.79
2022-11-21T21:56:27.926Z,2.78
2022-11-21T21:58:55.780Z,2.75
2022-11-21T22:01:27.759Z,2.77
2022-11-21T22:03:56.890Z,2.77
2022-11-21T22:06:23.795Z,2.81
2022-11-21T22:08:51.569Z,2.81
2022-11-21T22:11:22.482Z,2.79
2022-11-21T22:13:57.717Z,2.80
2022-11-21T22:16:24.798Z,2.82
2022-11-21T22:18:51.911Z,2.80
2022-11-21T22:21:19.520Z,2.77
2022-11-21T22:24:09.807Z,2.66
2022-11-21T22:26:34.000Z,2.57
2022-11-21T22:29:00.737Z,2.53
2022-11-21T22:31:30.560Z,2.53
2022-11-21T22:33:57.760Z,2.46
2022-11-21T22:36:24.817Z,2.44
2022-11-21T22:38:56.054Z,2.48
2022-11-21T22:41:25.594Z,2.58
2022-11-21T22:43:59.589Z,2.55
2022-11-21T22:46:28.037Z,2.55
2022-11-21T22:48:55.752Z,2.57
2022-11-21T22:51:25.526Z,2.55
2022-11-21T22:53:52.810Z,2.56
2022-11-21T22:56:22.337Z,2.60
2022-11-21T22:58:50.589Z,2.57
2022-11-21T23:01:20.321Z,2.56
2022-11-21T23:03:47.661Z,2.52
2022-11-21T23:06:18.942Z,2.57
2022-11-21T23:08:46.943Z,2.63
2022-11-21T23:11:16.027Z,2.70
2022-11-21T23:13:45.151Z,2.73
2022-11-21T23:16:13.060Z,2.75
2022-11-21T23:18:40.610Z,2.73
2022-11-21T23:21:08.134Z,2.81
2022-11-21T23:23:35.793Z,2.87
2022-11-21T23:26:03.003Z,2.85
2022-11-21T23:28:30.912Z,2.76
2022-11-21T23:30:57.936Z,2.75
2022-11-21T23:33:24.648Z,2.75
2022-11-21T23:35:51.405Z,2.75
2022-11-21T23:38:19.286Z,2.72
2022-11-21T23:40:47.913Z,2.74
2022-11-21T23:43:16.362Z,2.88
2022-11-21T23:45:43.593Z,2.97
2022-11-21T23:48:10.324Z,2.97
2022-11-21T23:50:37.286Z,2.95
2022-11-21T23:53:04.175Z,2.88
2022-11-21T23:55:31.114Z,2.85
2022-11-21T23:57:59.287Z,2.72
